sensor_id;sensor_type;location;lat;lon;timestamp;temperature;humidity
23991;DHT22;12205;50.600;4.608;2023-04-24T00:01:03;9.10;99.90
23991;DHT22;12205;50.600;4.608;2023-04-24T00:03:32;9.10;99.90
23991;DHT22;12205;50.600;4.608;2023-04-24T00:06:00;9.10;99.90
23991;DHT22;12205;50.600;4.608;2023-04-24T00:08:28;9.00;99.90
23991;DHT22;12205;50.600;4.608;2023-04-24T00:10:56;9.00;99.90
23991;DHT22;12205;50.600;4.608;2023-04-24T00:13:23;9.00;99.90
23991;DHT22;12205;50.600;4.608;2023-04-24T00:15:50;9.00;99.90
23991;DHT22;12205;50.600;4.608;2023-04-24T00:18:17;9.00;99.90
23991;DHT22;12205;50.600;4.608;2023-04-24T00:20:44;9.00;99.90
23991;DHT22;12205;50.600;4.608;2023-04-24T00:23:12;9.00;99.90
23991;DHT22;12205;50.600;4.608;2023-04-24T00:25:39;9.00;99.90
23991;DHT22;12205;50.600;4.608;2023-04-24T00:28:07;9.00;99.90
23991;DHT22;12205;50.600;4.608;2023-04-24T00:30:34;9.00;99.90
23991;DHT22;12205;50.600;4.608;2023-04-24T00:33:01;9.00;99.90
23991;DHT22;12205;50.600;4.608;2023-04-24T00:35:28;9.00;99.90
23991;DHT22;12205;50.600;4.608;2023-04-24T00:37:55;9.00;99.90
23991;DHT22;12205;50.600;4.608;2023-04-24T00:40:22;9.00;99.90
23991;DHT22;12205;50.600;4.608;2023-04-24T00:42:49;9.00;99.90
23991;DHT22;12205;50.600;4.608;2023-04-24T00:45:18;9.00;99.90
23991;DHT22;12205;50.600;4.608;2023-04-24T00:47:45;9.00;99.90
23991;DHT22;12205;50.600;4.608;2023-04-24T00:50:14;8.90;99.90
23991;DHT22;12205;50.600;4.608;2023-04-24T00:52:41;8.90;99.90
23991;DHT22;12205;50.600;4.608;2023-04-24T00:55:09;8.90;99.90
23991;DHT22;12205;50.600;4.608;2023-04-24T00:57:36;8.90;99.90
23991;DHT22;12205;50.600;4.608;2023-04-24T01:00:04;8.90;99.90
23991;DHT22;12205;50.600;4.608;2023-04-24T01:02:34;8.80;99.90
23991;DHT22;12205;50.600;4.608;2023-04-24T01:05:01;8.90;99.90
23991;DHT22;12205;50.600;4.608;2023-04-24T01:07:29;8.80;99.90
23991;DHT22;12205;50.600;4.608;2023-04-24T01:09:56;8.80;99.90
23991;DHT22;12205;50.600;4.608;2023-04-24T01:12:24;8.80;99.90
23991;DHT22;12205;50.600;4.608;2023-04-24T01:14:51;8.80;99.90
23991;DHT22;12205;50.600;4.608;2023-04-24T01:17:18;8.80;99.90
23991;DHT22;12205;50.600;4.608;2023-04-24T01:19:48;8.80;99.90
23991;DHT22;12205;50.600;4.608;2023-04-24T01:22:16;8.70;99.90
23991;DHT22;12205;50.600;4.608;2023-04-24T01:24:43;8.60;99.90
23991;DHT22;12205;50.600;4.608;2023-04-24T01:27:12;8.60;99.90
23991;DHT22;12205;50.600;4.608;2023-04-24T01:29:39;8.60;99.90
23991;DHT22;12205;50.600;4.608;2023-04-24T01:32:06;8.60;99.90
23991;DHT22;12205;50.600;4.608;2023-04-24T01:34:33;8.50;99.90
23991;DHT22;12205;50.600;4.608;2023-04-24T01:37:01;8.40;99.90
23991;DHT22;12205;50.600;4.608;2023-04-24T01:39:29;8.20;99.90
23991;DHT22;12205;50.600;4.608;2023-04-24T01:41:56;8.20;99.90
23991;DHT22;12205;50.600;4.608;2023-04-24T01:44:23;8.10;99.90
23991;DHT22;12205;50.600;4.608;2023-04-24T01:46:50;8.10;99.90
23991;DHT22;12205;50.600;4.608;2023-04-24T01:49:19;8.10;99.90
23991;DHT22;12205;50.600;4.608;2023-04-24T01:51:46;8.10;99.90
23991;DHT22;12205;50.600;4.608;2023-04-24T01:54:13;8.00;99.90
23991;DHT22;12205;50.600;4.608;2023-04-24T01:56:42;8.00;99.90
23991;DHT22;12205;50.600;4.608;2023-04-24T01:59:10;8.00;99.90
23991;DHT22;12205;50.600;4.608;2023-04-24T02:01:37;8.00;99.90
23991;DHT22;12205;50.600;4.608;2023-04-24T02:04:05;8.00;99.90
23991;DHT22;12205;50.600;4.608;2023-04-24T02:06:34;8.00;99.90
23991;DHT22;12205;50.600;4.608;2023-04-24T02:09:02;8.00;99.90
23991;DHT22;12205;50.600;4.608;2023-04-24T02:11:29;8.00;99.90
23991;DHT22;12205;50.600;4.608;2023-04-24T02:13:58;8.00;99.90
23991;DHT22;12205;50.600;4.608;2023-04-24T02:16:25;8.00;99.90
23991;DHT22;12205;50.600;4.608;2023-04-24T02:18:52;8.00;99.90
23991;DHT22;12205;50.600;4.608;2023-04-24T02:21:19;8.00;99.90
23991;DHT22;12205;50.600;4.608;2023-04-24T02:23:46;8.00;99.90
23991;DHT22;12205;50.600;4.608;2023-04-24T02:26:13;8.00;99.90
23991;DHT22;12205;50.600;4.608;2023-04-24T02:28:40;8.00;99.90
23991;DHT22;12205;50.600;4.608;2023-04-24T02:31:09;7.90;99.90
23991;DHT22;12205;50.600;4.608;2023-04-24T02:33:35;7.90;99.90
23991;DHT22;12205;50.600;4.608;2023-04-24T02:36:03;7.90;99.90
23991;DHT22;12205;50.600;4.608;2023-04-24T02:38:30;7.90;99.90
23991;DHT22;12205;50.600;4.608;2023-04-24T02:40:57;8.00;99.90
23991;DHT22;12205;50.600;4.608;2023-04-24T02:43:25;8.00;99.90
23991;DHT22;12205;50.600;4.608;2023-04-24T02:45:52;7.90;99.90
23991;DHT22;12205;50.600;4.608;2023-04-24T02:48:21;8.00;99.90
23991;DHT22;12205;50.600;4.608;2023-04-24T02:50:48;8.00;99.90
23991;DHT22;12205;50.600;4.608;2023-04-24T02:53:14;7.90;99.90
23991;DHT22;12205;50.600;4.608;2023-04-24T02:55:41;7.90;99.90
23991;DHT22;12205;50.600;4.608;2023-04-24T02:58:08;7.90;99.90
23991;DHT22;12205;50.600;4.608;2023-04-24T03:00:36;7.90;99.90
23991;DHT22;12205;50.600;4.608;2023-04-24T03:03:03;7.90;99.90
23991;DHT22;12205;50.600;4.608;2023-04-24T03:05:32;7.90;99.90
23991;DHT22;12205;50.600;4.608;2023-04-24T03:07:59;7.90;99.90
23991;DHT22;12205;50.600;4.608;2023-04-24T03:10:26;7.90;99.90
23991;DHT22;12205;50.600;4.608;2023-04-24T03:12:53;7.80;99.90
23991;DHT22;12205;50.600;4.608;2023-04-24T03:15:20;7.80;99.90
23991;DHT22;12205;50.600;4.608;2023-04-24T03:17:47;7.80;99.90
23991;DHT22;12205;50.600;4.608;2023-04-24T03:20:14;7.70;99.90
23991;DHT22;12205;50.600;4.608;2023-04-24T03:22:44;7.70;99.90
23991;DHT22;12205;50.600;4.608;2023-04-24T03:25:11;7.70;99.90
23991;DHT22;12205;50.600;4.608;2023-04-24T03:27:38;7.70;99.90
23991;DHT22;12205;50.600;4.608;2023-04-24T03:30:14;7.70;99.90
23991;DHT22;12205;50.600;4.608;2023-04-24T03:32:48;7.70;99.90
23991;DHT22;12205;50.600;4.608;2023-04-24T03:35:21;7.70;99.90
23991;DHT22;12205;50.600;4.608;2023-04-24T03:37:50;7.70;99.90
23991;DHT22;12205;50.600;4.608;2023-04-24T03:40:35;7.70;99.90
23991;DHT22;12205;50.600;4.608;2023-04-24T03:43:08;7.70;99.90
23991;DHT22;12205;50.600;4.608;2023-04-24T03:45:36;7.60;99.90
23991;DHT22;12205;50.600;4.608;2023-04-24T03:48:03;7.60;99.90
23991;DHT22;12205;50.600;4.608;2023-04-24T03:50:31;7.70;99.90
23991;DHT22;12205;50.600;4.608;2023-04-24T03:53:00;7.70;99.90
23991;DHT22;12205;50.600;4.608;2023-04-24T03:55:36;7.70;99.90
23991;DHT22;12205;50.600;4.608;2023-04-24T03:58:03;7.70;99.90
23991;DHT22;12205;50.600;4.608;2023-04-24T04:00:30;7.70;99.90
23991;DHT22;12205;50.600;4.608;2023-04-24T04:03:18;7.60;99.90
23991;DHT22;12205;50.600;4.608;2023-04-24T04:05:45;7.70;99.90
23991;DHT22;12205;50.600;4.608;2023-04-24T04:08:14;7.60;99.90
23991;DHT22;12205;50.600;4.608;2023-04-24T04:10:40;7.70;99.90
23991;DHT22;12205;50.600;4.608;2023-04-24T04:13:07;7.70;99.90
23991;DHT22;12205;50.600;4.608;2023-04-24T04:15:35;7.70;99.90
23991;DHT22;12205;50.600;4.608;2023-04-24T04:18:02;7.70;99.90
23991;DHT22;12205;50.600;4.608;2023-04-24T04:20:30;7.70;99.90
23991;DHT22;12205;50.600;4.608;2023-04-24T04:22:57;7.70;99.90
23991;DHT22;12205;50.600;4.608;2023-04-24T04:25:37;7.70;99.90
23991;DHT22;12205;50.600;4.608;2023-04-24T04:28:04;7.70;99.90
23991;DHT22;12205;50.600;4.608;2023-04-24T04:30:32;7.80;99.90
23991;DHT22;12205;50.600;4.608;2023-04-24T04:33:03;7.80;99.90
23991;DHT22;12205;50.600;4.608;2023-04-24T04:35:31;7.80;99.90
23991;DHT22;12205;50.600;4.608;2023-04-24T04:37:58;7.80;99.90
23991;DHT22;12205;50.600;4.608;2023-04-24T04:40:46;7.80;99.90
23991;DHT22;12205;50.600;4.608;2023-04-24T04:43:23;7.80;99.90
23991;DHT22;12205;50.600;4.608;2023-04-24T04:45:53;7.80;99.90
23991;DHT22;12205;50.600;4.608;2023-04-24T04:48:34;7.90;99.90
23991;DHT22;12205;50.600;4.608;2023-04-24T04:51:04;7.90;99.90
23991;DHT22;12205;50.600;4.608;2023-04-24T04:53:31;7.90;99.90
23991;DHT22;12205;50.600;4.608;2023-04-24T04:56:00;8.00;99.90
23991;DHT22;12205;50.600;4.608;2023-04-24T04:58:34;8.00;99.90
23991;DHT22;12205;50.600;4.608;2023-04-24T05:01:02;8.00;99.90
23991;DHT22;12205;50.600;4.608;2023-04-24T05:03:37;8.10;99.90
23991;DHT22;12205;50.600;4.608;2023-04-24T05:06:07;8.20;99.90
23991;DHT22;12205;50.600;4.608;2023-04-24T05:08:37;8.20;99.90
23991;DHT22;12205;50.600;4.608;2023-04-24T05:11:09;8.20;99.90
23991;DHT22;12205;50.600;4.608;2023-04-24T05:13:38;8.20;99.90
23991;DHT22;12205;50.600;4.608;2023-04-24T05:16:08;8.20;99.90
23991;DHT22;12205;50.600;4.608;2023-04-24T05:18:35;8.20;99.90
23991;DHT22;12205;50.600;4.608;2023-04-24T05:21:05;8.20;99.90
23991;DHT22;12205;50.600;4.608;2023-04-24T05:23:32;8.20;99.90
23991;DHT22;12205;50.600;4.608;2023-04-24T05:26:00;8.10;99.90
23991;DHT22;12205;50.600;4.608;2023-04-24T05:28:28;8.10;99.90
23991;DHT22;12205;50.600;4.608;2023-04-24T05:31:09;8.10;99.90
23991;DHT22;12205;50.600;4.608;2023-04-24T05:33:36;8.00;99.90
23991;DHT22;12205;50.600;4.608;2023-04-24T05:36:03;8.10;99.90
23991;DHT22;12205;50.600;4.608;2023-04-24T05:38:31;8.10;99.90
23991;DHT22;12205;50.600;4.608;2023-04-24T05:40:59;8.10;99.90
23991;DHT22;12205;50.600;4.608;2023-04-24T05:43:28;8.10;99.90
23991;DHT22;12205;50.600;4.608;2023-04-24T05:45:55;8.10;99.90
23991;DHT22;12205;50.600;4.608;2023-04-24T05:48:22;8.10;99.90
23991;DHT22;12205;50.600;4.608;2023-04-24T05:50:49;8.00;99.90
23991;DHT22;12205;50.600;4.608;2023-04-24T05:53:16;8.00;99.90
23991;DHT22;12205;50.600;4.608;2023-04-24T05:55:43;8.00;99.90
23991;DHT22;12205;50.600;4.608;2023-04-24T05:58:10;8.00;99.90
23991;DHT22;12205;50.600;4.608;2023-04-24T06:00:39;8.00;99.90
23991;DHT22;12205;50.600;4.608;2023-04-24T06:03:08;8.00;99.90
23991;DHT22;12205;50.600;4.608;2023-04-24T06:05:35;8.00;99.90
23991;DHT22;12205;50.600;4.608;2023-04-24T06:08:02;8.00;99.90
23991;DHT22;12205;50.600;4.608;2023-04-24T06:10:35;8.00;99.90
23991;DHT22;12205;50.600;4.608;2023-04-24T06:13:04;8.00;99.90
23991;DHT22;12205;50.600;4.608;2023-04-24T06:15:33;8.00;99.90
23991;DHT22;12205;50.600;4.608;2023-04-24T06:18:17;8.00;99.90
23991;DHT22;12205;50.600;4.608;2023-04-24T06:20:45;8.00;99.90
23991;DHT22;12205;50.600;4.608;2023-04-24T06:23:12;8.00;99.90
23991;DHT22;12205;50.600;4.608;2023-04-24T06:25:39;8.00;99.90
23991;DHT22;12205;50.600;4.608;2023-04-24T06:28:06;8.00;99.90
23991;DHT22;12205;50.600;4.608;2023-04-24T06:30:34;8.10;99.90
23991;DHT22;12205;50.600;4.608;2023-04-24T06:33:01;8.10;99.90
23991;DHT22;12205;50.600;4.608;2023-04-24T06:35:29;8.00;99.90
23991;DHT22;12205;50.600;4.608;2023-04-24T06:37:56;8.00;99.90
23991;DHT22;12205;50.600;4.608;2023-04-24T06:40:23;8.00;99.90
23991;DHT22;12205;50.600;4.608;2023-04-24T06:42:50;8.00;99.90
23991;DHT22;12205;50.600;4.608;2023-04-24T06:45:18;8.10;99.90
23991;DHT22;12205;50.600;4.608;2023-04-24T06:47:45;8.10;99.90
23991;DHT22;12205;50.600;4.608;2023-04-24T06:50:12;8.10;99.90
23991;DHT22;12205;50.600;4.608;2023-04-24T06:52:40;8.10;99.90
23991;DHT22;12205;50.600;4.608;2023-04-24T06:55:08;8.20;99.90
23991;DHT22;12205;50.600;4.608;2023-04-24T06:57:36;8.20;99.90
23991;DHT22;12205;50.600;4.608;2023-04-24T07:00:04;8.20;99.90
23991;DHT22;12205;50.600;4.608;2023-04-24T07:02:32;8.30;99.90
23991;DHT22;12205;50.600;4.608;2023-04-24T07:04:59;8.40;99.90
23991;DHT22;12205;50.600;4.608;2023-04-24T07:07:26;8.40;99.90
23991;DHT22;12205;50.600;4.608;2023-04-24T07:09:55;8.50;99.90
23991;DHT22;12205;50.600;4.608;2023-04-24T07:12:22;8.40;99.90
23991;DHT22;12205;50.600;4.608;2023-04-24T07:14:49;8.50;99.90
23991;DHT22;12205;50.600;4.608;2023-04-24T07:17:16;8.40;99.90
23991;DHT22;12205;50.600;4.608;2023-04-24T07:19:43;8.50;99.90
23991;DHT22;12205;50.600;4.608;2023-04-24T07:22:10;8.50;99.90
23991;DHT22;12205;50.600;4.608;2023-04-24T07:24:42;8.60;99.90
23991;DHT22;12205;50.600;4.608;2023-04-24T07:27:10;8.60;99.90
23991;DHT22;12205;50.600;4.608;2023-04-24T07:29:37;8.60;99.90
23991;DHT22;12205;50.600;4.608;2023-04-24T07:32:05;8.70;99.90
23991;DHT22;12205;50.600;4.608;2023-04-24T07:34:33;8.70;99.90
23991;DHT22;12205;50.600;4.608;2023-04-24T07:37:00;8.70;99.90
23991;DHT22;12205;50.600;4.608;2023-04-24T07:39:27;8.70;99.90
23991;DHT22;12205;50.600;4.608;2023-04-24T07:41:54;8.70;99.90
23991;DHT22;12205;50.600;4.608;2023-04-24T07:44:23;8.80;99.90
23991;DHT22;12205;50.600;4.608;2023-04-24T07:46:50;8.80;99.90
23991;DHT22;12205;50.600;4.608;2023-04-24T07:49:17;8.80;99.90
23991;DHT22;12205;50.600;4.608;2023-04-24T07:51:44;8.80;99.90
23991;DHT22;12205;50.600;4.608;2023-04-24T07:54:12;8.90;99.90
23991;DHT22;12205;50.600;4.608;2023-04-24T07:56:39;8.90;99.90
23991;DHT22;12205;50.600;4.608;2023-04-24T07:59:08;8.90;99.90
23991;DHT22;12205;50.600;4.608;2023-04-24T08:01:37;9.00;99.90
23991;DHT22;12205;50.600;4.608;2023-04-24T08:04:04;9.10;99.90
23991;DHT22;12205;50.600;4.608;2023-04-24T08:06:31;9.10;99.90
23991;DHT22;12205;50.600;4.608;2023-04-24T08:08:59;9.10;99.90
23991;DHT22;12205;50.600;4.608;2023-04-24T08:11:26;9.20;99.90
23991;DHT22;12205;50.600;4.608;2023-04-24T08:13:53;9.10;99.90
23991;DHT22;12205;50.600;4.608;2023-04-24T08:16:21;9.10;99.90
23991;DHT22;12205;50.600;4.608;2023-04-24T08:18:50;9.10;99.90
23991;DHT22;12205;50.600;4.608;2023-04-24T08:21:17;9.20;99.90
23991;DHT22;12205;50.600;4.608;2023-04-24T08:23:45;9.20;99.90
23991;DHT22;12205;50.600;4.608;2023-04-24T08:26:13;9.20;99.90
23991;DHT22;12205;50.600;4.608;2023-04-24T08:28:40;9.20;99.90
23991;DHT22;12205;50.600;4.608;2023-04-24T08:31:07;9.20;99.90
23991;DHT22;12205;50.600;4.608;2023-04-24T08:33:33;9.20;99.90
23991;DHT22;12205;50.600;4.608;2023-04-24T08:36:03;9.20;99.90
23991;DHT22;12205;50.600;4.608;2023-04-24T08:38:30;9.30;99.90
23991;DHT22;12205;50.600;4.608;2023-04-24T08:40:59;9.40;99.90
23991;DHT22;12205;50.600;4.608;2023-04-24T08:43:27;9.40;99.90
23991;DHT22;12205;50.600;4.608;2023-04-24T08:45:56;9.50;99.90
23991;DHT22;12205;50.600;4.608;2023-04-24T08:48:25;9.50;99.90
23991;DHT22;12205;50.600;4.608;2023-04-24T08:50:53;9.60;99.90
23991;DHT22;12205;50.600;4.608;2023-04-24T08:53:22;9.70;99.90
23991;DHT22;12205;50.600;4.608;2023-04-24T08:55:51;9.70;99.90
23991;DHT22;12205;50.600;4.608;2023-04-24T08:58:20;9.90;99.90
23991;DHT22;12205;50.600;4.608;2023-04-24T09:00:48;9.90;99.90
23991;DHT22;12205;50.600;4.608;2023-04-24T09:03:16;10.00;99.90
23991;DHT22;12205;50.600;4.608;2023-04-24T09:05:44;10.10;99.90
23991;DHT22;12205;50.600;4.608;2023-04-24T09:08:13;10.30;99.90
23991;DHT22;12205;50.600;4.608;2023-04-24T09:10:41;10.30;99.90
23991;DHT22;12205;50.600;4.608;2023-04-24T09:13:09;10.20;99.90
23991;DHT22;12205;50.600;4.608;2023-04-24T09:15:36;10.20;99.90
23991;DHT22;12205;50.600;4.608;2023-04-24T09:18:04;10.20;99.90
23991;DHT22;12205;50.600;4.608;2023-04-24T09:20:31;10.30;99.90
23991;DHT22;12205;50.600;4.608;2023-04-24T09:22:58;10.30;99.90
23991;DHT22;12205;50.600;4.608;2023-04-24T09:25:31;10.30;99.90
23991;DHT22;12205;50.600;4.608;2023-04-24T09:28:02;10.20;99.90
23991;DHT22;12205;50.600;4.608;2023-04-24T09:30:29;10.20;99.90
23991;DHT22;12205;50.600;4.608;2023-04-24T09:33:10;10.20;99.90
23991;DHT22;12205;50.600;4.608;2023-04-24T09:35:40;10.40;99.90
23991;DHT22;12205;50.600;4.608;2023-04-24T09:38:08;10.60;99.90
23991;DHT22;12205;50.600;4.608;2023-04-24T09:40:35;10.70;99.90
23991;DHT22;12205;50.600;4.608;2023-04-24T09:43:03;10.70;99.90
23991;DHT22;12205;50.600;4.608;2023-04-24T09:45:35;10.80;99.90
23991;DHT22;12205;50.600;4.608;2023-04-24T09:48:03;10.90;99.90
23991;DHT22;12205;50.600;4.608;2023-04-24T09:50:31;10.80;99.90
23991;DHT22;12205;50.600;4.608;2023-04-24T09:53:02;10.70;99.90
23991;DHT22;12205;50.600;4.608;2023-04-24T09:55:30;10.70;99.90
23991;DHT22;12205;50.600;4.608;2023-04-24T09:57:58;10.70;99.90
23991;DHT22;12205;50.600;4.608;2023-04-24T10:00:28;10.80;99.90
23991;DHT22;12205;50.600;4.608;2023-04-24T10:02:57;10.90;99.90
23991;DHT22;12205;50.600;4.608;2023-04-24T10:05:27;10.90;99.90
23991;DHT22;12205;50.600;4.608;2023-04-24T10:07:57;11.00;99.90
23991;DHT22;12205;50.600;4.608;2023-04-24T10:10:24;11.20;99.90
23991;DHT22;12205;50.600;4.608;2023-04-24T10:12:51;11.30;99.90
23991;DHT22;12205;50.600;4.608;2023-04-24T10:15:20;11.40;99.90
23991;DHT22;12205;50.600;4.608;2023-04-24T10:17:50;11.50;99.90
23991;DHT22;12205;50.600;4.608;2023-04-24T10:20:22;11.40;99.90
23991;DHT22;12205;50.600;4.608;2023-04-24T10:22:50;11.30;99.90
23991;DHT22;12205;50.600;4.608;2023-04-24T10:25:19;11.20;99.90
23991;DHT22;12205;50.600;4.608;2023-04-24T10:27:48;11.00;99.90
23991;DHT22;12205;50.600;4.608;2023-04-24T10:30:16;10.90;99.90
23991;DHT22;12205;50.600;4.608;2023-04-24T10:32:43;10.70;99.90
23991;DHT22;12205;50.600;4.608;2023-04-24T10:35:13;10.70;99.90
23991;DHT22;12205;50.600;4.608;2023-04-24T10:37:43;10.80;99.90
23991;DHT22;12205;50.600;4.608;2023-04-24T10:40:12;10.80;99.90
23991;DHT22;12205;50.600;4.608;2023-04-24T10:42:42;10.90;99.90
23991;DHT22;12205;50.600;4.608;2023-04-24T10:45:16;11.20;99.90
23991;DHT22;12205;50.600;4.608;2023-04-24T10:47:52;11.40;99.90
23991;DHT22;12205;50.600;4.608;2023-04-24T10:50:20;11.40;99.90
23991;DHT22;12205;50.600;4.608;2023-04-24T10:52:48;11.40;99.90
23991;DHT22;12205;50.600;4.608;2023-04-24T10:55:40;11.40;99.90
23991;DHT22;12205;50.600;4.608;2023-04-24T10:58:07;11.30;99.90
23991;DHT22;12205;50.600;4.608;2023-04-24T11:00:36;11.30;99.90
23991;DHT22;12205;50.600;4.608;2023-04-24T11:03:05;11.40;99.90
23991;DHT22;12205;50.600;4.608;2023-04-24T11:05:57;11.60;99.90
23991;DHT22;12205;50.600;4.608;2023-04-24T11:08:28;11.60;99.90
23991;DHT22;12205;50.600;4.608;2023-04-24T11:10:58;11.70;99.90
23991;DHT22;12205;50.600;4.608;2023-04-24T11:13:27;11.70;99.90
23991;DHT22;12205;50.600;4.608;2023-04-24T11:16:13;11.60;99.90
23991;DHT22;12205;50.600;4.608;2023-04-24T11:18:42;11.70;99.90
23991;DHT22;12205;50.600;4.608;2023-04-24T11:21:13;11.70;99.90
23991;DHT22;12205;50.600;4.608;2023-04-24T11:23:42;11.50;99.90
23991;DHT22;12205;50.600;4.608;2023-04-24T11:26:10;11.50;99.90
23991;DHT22;12205;50.600;4.608;2023-04-24T11:28:44;11.40;99.90
23991;DHT22;12205;50.600;4.608;2023-04-24T11:31:34;11.30;99.90
23991;DHT22;12205;50.600;4.608;2023-04-24T11:34:10;11.30;99.90
23991;DHT22;12205;50.600;4.608;2023-04-24T11:36:39;11.20;99.90
23991;DHT22;12205;50.600;4.608;2023-04-24T11:39:06;11.20;99.90
23991;DHT22;12205;50.600;4.608;2023-04-24T11:41:34;11.30;99.90
23991;DHT22;12205;50.600;4.608;2023-04-24T11:44:01;11.50;99.90
23991;DHT22;12205;50.600;4.608;2023-04-24T11:46:29;11.60;99.90
23991;DHT22;12205;50.600;4.608;2023-04-24T11:48:57;11.50;99.90
23991;DHT22;12205;50.600;4.608;2023-04-24T11:51:26;11.40;99.90
23991;DHT22;12205;50.600;4.608;2023-04-24T11:53:55;11.40;99.90
23991;DHT22;12205;50.600;4.608;2023-04-24T11:56:23;11.60;99.90
23991;DHT22;12205;50.600;4.608;2023-04-24T11:58:52;11.70;99.90
23991;DHT22;12205;50.600;4.608;2023-04-24T12:01:19;11.90;99.90
23991;DHT22;12205;50.600;4.608;2023-04-24T12:03:50;11.90;99.90
23991;DHT22;12205;50.600;4.608;2023-04-24T12:06:17;11.90;99.90
23991;DHT22;12205;50.600;4.608;2023-04-24T12:08:48;11.90;99.90
23991;DHT22;12205;50.600;4.608;2023-04-24T12:11:16;11.90;99.90
23991;DHT22;12205;50.600;4.608;2023-04-24T12:13:46;12.20;99.90
23991;DHT22;12205;50.600;4.608;2023-04-24T12:16:13;12.40;99.90
23991;DHT22;12205;50.600;4.608;2023-04-24T12:18:44;12.70;99.90
23991;DHT22;12205;50.600;4.608;2023-04-24T12:21:16;13.10;99.90
23991;DHT22;12205;50.600;4.608;2023-04-24T12:23:43;13.50;99.90
23991;DHT22;12205;50.600;4.608;2023-04-24T12:26:10;13.60;99.90
23991;DHT22;12205;50.600;4.608;2023-04-24T12:28:39;13.60;99.90
23991;DHT22;12205;50.600;4.608;2023-04-24T12:31:06;13.60;99.90
23991;DHT22;12205;50.600;4.608;2023-04-24T12:33:34;13.40;99.90
23991;DHT22;12205;50.600;4.608;2023-04-24T12:36:02;13.30;99.90
23991;DHT22;12205;50.600;4.608;2023-04-24T12:38:29;13.20;99.90
23991;DHT22;12205;50.600;4.608;2023-04-24T12:41:03;13.00;99.90
23991;DHT22;12205;50.600;4.608;2023-04-24T12:43:31;12.90;99.90
23991;DHT22;12205;50.600;4.608;2023-04-24T12:45:59;12.80;99.90
23991;DHT22;12205;50.600;4.608;2023-04-24T12:48:26;12.90;99.90
23991;DHT22;12205;50.600;4.608;2023-04-24T12:50:53;12.90;99.90
23991;DHT22;12205;50.600;4.608;2023-04-24T12:53:20;12.90;99.90
23991;DHT22;12205;50.600;4.608;2023-04-24T12:55:47;12.90;99.90
23991;DHT22;12205;50.600;4.608;2023-04-24T12:58:19;13.00;99.90
23991;DHT22;12205;50.600;4.608;2023-04-24T13:00:46;13.00;99.90
23991;DHT22;12205;50.600;4.608;2023-04-24T13:03:14;13.00;99.90
23991;DHT22;12205;50.600;4.608;2023-04-24T13:05:42;13.00;99.90
23991;DHT22;12205;50.600;4.608;2023-04-24T13:08:09;12.90;99.90
23991;DHT22;12205;50.600;4.608;2023-04-24T13:10:36;12.80;99.90
23991;DHT22;12205;50.600;4.608;2023-04-24T13:13:03;12.80;99.90
23991;DHT22;12205;50.600;4.608;2023-04-24T13:15:30;12.70;99.90
23991;DHT22;12205;50.600;4.608;2023-04-24T13:17:57;12.60;99.90
23991;DHT22;12205;50.600;4.608;2023-04-24T13:20:25;12.60;99.90
23991;DHT22;12205;50.600;4.608;2023-04-24T13:22:52;12.40;99.90
23991;DHT22;12205;50.600;4.608;2023-04-24T13:25:20;12.30;99.90
23991;DHT22;12205;50.600;4.608;2023-04-24T13:27:49;12.20;99.90
23991;DHT22;12205;50.600;4.608;2023-04-24T13:30:16;12.20;99.90
23991;DHT22;12205;50.600;4.608;2023-04-24T13:32:43;12.20;99.90
23991;DHT22;12205;50.600;4.608;2023-04-24T13:35:10;12.20;99.90
23991;DHT22;12205;50.600;4.608;2023-04-24T13:37:38;12.20;99.90
23991;DHT22;12205;50.600;4.608;2023-04-24T13:40:06;12.20;99.90
23991;DHT22;12205;50.600;4.608;2023-04-24T13:42:33;12.20;99.90
23991;DHT22;12205;50.600;4.608;2023-04-24T13:45:01;12.30;99.90
23991;DHT22;12205;50.600;4.608;2023-04-24T13:47:28;12.30;99.90
23991;DHT22;12205;50.600;4.608;2023-04-24T13:49:54;12.30;99.90
23991;DHT22;12205;50.600;4.608;2023-04-24T13:52:21;12.20;99.90
23991;DHT22;12205;50.600;4.608;2023-04-24T13:54:50;12.10;99.90
23991;DHT22;12205;50.600;4.608;2023-04-24T13:57:17;12.00;99.90
23991;DHT22;12205;50.600;4.608;2023-04-24T13:59:44;11.90;99.90
23991;DHT22;12205;50.600;4.608;2023-04-24T14:02:11;11.80;99.90
23991;DHT22;12205;50.600;4.608;2023-04-24T14:04:38;11.70;99.90
23991;DHT22;12205;50.600;4.608;2023-04-24T14:07:05;11.60;99.90
23991;DHT22;12205;50.600;4.608;2023-04-24T14:09:33;11.30;99.90
23991;DHT22;12205;50.600;4.608;2023-04-24T14:12:02;11.20;99.90
23991;DHT22;12205;50.600;4.608;2023-04-24T14:14:29;11.20;99.90
23991;DHT22;12205;50.600;4.608;2023-04-24T14:16:56;11.10;99.90
23991;DHT22;12205;50.600;4.608;2023-04-24T14:19:24;11.10;99.90
23991;DHT22;12205;50.600;4.608;2023-04-24T14:21:51;11.20;99.90
23991;DHT22;12205;50.600;4.608;2023-04-24T14:24:18;11.20;99.90
23991;DHT22;12205;50.600;4.608;2023-04-24T14:26:45;11.20;99.90
23991;DHT22;12205;50.600;4.608;2023-04-24T14:29:13;11.30;99.90
23991;DHT22;12205;50.600;4.608;2023-04-24T14:31:40;11.30;99.90
23991;DHT22;12205;50.600;4.608;2023-04-24T14:34:07;11.30;99.90
23991;DHT22;12205;50.600;4.608;2023-04-24T14:36:34;11.40;99.90
23991;DHT22;12205;50.600;4.608;2023-04-24T14:39:01;11.40;99.90
23991;DHT22;12205;50.600;4.608;2023-04-24T14:41:31;11.50;99.90
23991;DHT22;12205;50.600;4.608;2023-04-24T14:44:01;11.60;99.90
23991;DHT22;12205;50.600;4.608;2023-04-24T14:46:29;11.70;99.90
23991;DHT22;12205;50.600;4.608;2023-04-24T14:48:56;11.80;99.90
23991;DHT22;12205;50.600;4.608;2023-04-24T14:51:23;12.00;99.90
23991;DHT22;12205;50.600;4.608;2023-04-24T14:53:51;12.10;99.90
23991;DHT22;12205;50.600;4.608;2023-04-24T14:56:17;12.20;99.90
23991;DHT22;12205;50.600;4.608;2023-04-24T14:58:44;12.30;99.90
23991;DHT22;12205;50.600;4.608;2023-04-24T15:01:11;12.40;99.90
23991;DHT22;12205;50.600;4.608;2023-04-24T15:03:40;12.50;99.90
23991;DHT22;12205;50.600;4.608;2023-04-24T15:06:07;12.60;99.90
23991;DHT22;12205;50.600;4.608;2023-04-24T15:08:33;12.60;99.90
23991;DHT22;12205;50.600;4.608;2023-04-24T15:11:01;12.60;99.90
23991;DHT22;12205;50.600;4.608;2023-04-24T15:13:28;12.70;99.90
23991;DHT22;12205;50.600;4.608;2023-04-24T15:15:55;12.50;99.90
23991;DHT22;12205;50.600;4.608;2023-04-24T15:18:22;12.50;99.90
23991;DHT22;12205;50.600;4.608;2023-04-24T15:20:50;12.40;99.90
23991;DHT22;12205;50.600;4.608;2023-04-24T15:23:17;12.50;99.90
23991;DHT22;12205;50.600;4.608;2023-04-24T15:25:44;12.50;99.90
23991;DHT22;12205;50.600;4.608;2023-04-24T15:28:11;12.60;99.90
23991;DHT22;12205;50.600;4.608;2023-04-24T15:30:38;12.70;99.90
23991;DHT22;12205;50.600;4.608;2023-04-24T15:33:05;12.80;99.90
23991;DHT22;12205;50.600;4.608;2023-04-24T15:35:32;12.80;99.90
23991;DHT22;12205;50.600;4.608;2023-04-24T15:38:00;12.90;99.90
23991;DHT22;12205;50.600;4.608;2023-04-24T15:40:29;12.90;99.90
23991;DHT22;12205;50.600;4.608;2023-04-24T15:42:56;12.70;99.90
23991;DHT22;12205;50.600;4.608;2023-04-24T15:45:23;12.60;99.90
23991;DHT22;12205;50.600;4.608;2023-04-24T15:47:51;12.60;99.90